Time;durP1;ratioP1;P1;durP2;ratioP2;P2;SDS_P1;SDS_P2;PMS_P1;PMS_P2;Temp;Humidity;BMP_temperature;BMP_pressure;BME280_temperature;BME280_humidity;BME280_pressure;Samples;Min_cycle;Max_cycle;Signal;HPM_P1;HPM_P2
2021/09/11 00:00:02;;;;;;;8.33;7.17;;;;;;;;;;5010417;28;20441;-90
2021/09/11 00:02:30;;;;;;;7.90;7.10;;;18.10;99.90;;;;;;5019350;23;20425;-89
2021/09/11 00:04:57;;;;;;;7.87;7.17;;;;;;;;;;5006502;28;20449;-91
2021/09/11 00:07:25;;;;;;;7.17;6.50;;;;;;;;;;5009706;28;20432;-91
2021/09/11 00:09:52;;;;;;;7.40;6.73;;;;;;;;;;5014603;23;20560;-91
2021/09/11 00:12:19;;;;;;;8.30;7.50;;;;;;;;;;5023794;23;20515;-90
2021/09/11 00:14:46;;;;;;;9.17;7.40;;;;;;;;;;5021167;23;20496;-90
2021/09/11 00:17:13;;;;;;;7.50;6.90;;;;;;;;;;5010492;28;20449;-90
2021/09/11 00:19:41;;;;;;;7.30;6.70;;;18.00;99.90;;;;;;5011774;28;20437;-90
2021/09/11 00:22:08;;;;;;;8.17;6.97;;;;;;;;;;5010373;23;21018;-90
2021/09/11 00:24:35;;;;;;;7.27;6.67;;;;;;;;;;5000520;28;20457;-90
2021/09/11 00:27:03;;;;;;;7.47;6.87;;;;;;;;;;4997362;28;20457;-90
2021/09/11 00:29:30;;;;;;;6.93;6.33;;;;;;;;;;5006388;28;20448;-91
2021/09/11 00:31:57;;;;;;;8.37;7.57;;;;;;;;;;5011690;28;20488;-91
2021/09/11 00:34:24;;;;;;;7.63;6.93;;;;;;;;;;5010667;28;20453;-90
2021/09/11 00:36:52;;;;;;;7.93;7.17;;;17.90;99.90;;;;;;5007381;28;20442;-90
2021/09/11 00:39:20;;;;;;;8.27;7.47;;;;;;;;;;5012191;28;20758;-90
2021/09/11 00:41:48;;;;;;;7.77;7.07;;;;;;;;;;5004303;28;20940;-89
2021/09/11 00:44:15;;;;;;;7.80;7.10;;;;;;;;;;5025377;23;20489;-87
2021/09/11 00:46:42;;;;;;;8.40;7.60;;;;;;;;;;5012645;23;20453;-91
2021/09/11 00:49:09;;;;;;;7.53;6.83;;;;;;;;;;5007191;28;20437;-91
2021/09/11 00:51:37;;;;;;;7.80;7.10;;;17.80;99.90;;;;;;5007328;28;20492;-91
2021/09/11 00:54:06;;;;;;;9.30;7.43;;;17.80;99.90;;;;;;5002322;28;20453;-90
2021/09/11 00:56:34;;;;;;;7.70;7.00;;;17.70;99.90;;;;;;5015407;23;20485;-92
2021/09/11 00:59:02;;;;;;;9.23;7.50;;;17.60;99.90;;;;;;5006047;28;20446;-90
2021/09/11 01:03:55;;;;;;;7.43;6.60;;;;;;;;;;4969809;23;1086030;-90
2021/09/11 01:06:23;;;;;;;7.33;6.73;;;;;;;;;;5003794;28;20236;-90
2021/09/11 01:08:50;;;;;;;7.10;6.50;;;;;;;;;;5005327;28;20440;-90
2021/09/11 01:11:18;;;;;;;7.90;7.13;;;;;;;;;;5007918;28;21000;-90
2021/09/11 01:13:46;;;;;;;7.57;6.93;;;17.30;99.90;;;;;;5010699;23;20472;-90
2021/09/11 01:16:13;;;;;;;7.33;6.73;;;;;;;;;;5003770;28;20464;-92
2021/09/11 01:18:40;;;;;;;7.93;7.00;;;;;;;;;;5012678;23;20481;-90
2021/09/11 01:21:08;;;;;;;7.97;7.17;;;;;;;;;;5002526;28;20441;-89
2021/09/11 01:23:35;;;;;;;9.33;6.73;;;;;;;;;;5003156;28;20456;-90
2021/09/11 01:26:03;;;;;;;8.23;7.00;;;17.10;99.90;;;;;;5005450;28;20443;-91
2021/09/11 01:28:30;;;;;;;7.53;6.93;;;;;;;;;;5005551;28;20476;-92
2021/09/11 01:30:57;;;;;;;7.40;6.43;;;;;;;;;;5008021;28;20481;-90
2021/09/11 01:33:24;;;;;;;8.57;7.80;;;;;;;;;;5016569;23;20503;-91
2021/09/11 01:35:54;;;;;;;8.20;7.50;;;17.10;99.90;;;;;;5007931;28;20529;-90
2021/09/11 01:38:29;;;;;;;8.30;7.60;;;;;;;;;;5021073;23;20497;-90
2021/09/11 01:40:57;;;;;;;7.60;6.93;;;;;;;;;;5019426;23;20496;-91
2021/09/11 01:43:37;;;;;;;8.00;7.30;;;;;;;;;;5014722;28;20446;-91
2021/09/11 01:46:07;;;;;;;8.07;7.17;;;17.10;99.90;;;;;;5006659;28;20445;-91
2021/09/11 01:51:02;;;;;;;8.10;7.30;;;;;;;;;;5010154;23;21078;-91
2021/09/11 01:53:29;;;;;;;8.57;7.77;;;;;;;;;;5009063;28;20206;-91
2021/09/11 01:55:56;;;;;;;8.47;7.77;;;;;;;;;;5014311;23;20495;-91
2021/09/11 01:58:24;;;;;;;9.07;8.00;;;;;;;;;;5009365;28;20441;-92
2021/09/11 02:01:07;;;;;;;8.03;7.33;;;17.10;99.90;;;;;;5029109;23;20496;-90
2021/09/11 02:03:35;;;;;;;7.87;7.27;;;17.10;99.90;;;;;;5012562;23;20495;-91
2021/09/11 02:06:02;;;;;;;7.53;6.83;;;;;;;;;;5011160;28;20453;-91
2021/09/11 02:08:29;;;;;;;8.20;7.33;;;;;;;;;;5010709;28;20456;-92
2021/09/11 02:10:57;;;;;;;6.83;6.23;;;;;;;;;;5003950;28;20504;-91
2021/09/11 02:13:25;;;;;;;8.17;7.57;;;;;;;;;;5005986;28;20437;-90
2021/09/11 02:15:54;;;;;;;7.00;6.40;;;;;;;;;;5079398;23;20492;-90
2021/09/11 02:18:22;;;;;;;7.00;6.40;;;17.00;99.90;;;;;;4984217;23;20512;-90
2021/09/11 02:20:51;;;;;;;8.30;7.50;;;;;;;;;;5010739;28;20426;-91
2021/09/11 02:23:18;;;;;;;7.80;6.97;;;;;;;;;;5006464;28;20433;-91
2021/09/11 02:25:45;;;;;;;7.60;6.90;;;;;;;;;;5007042;28;20445;-91
2021/09/11 02:28:12;;;;;;;7.00;6.40;;;;;;;;;;5010908;28;20442;-91
2021/09/11 02:30:40;;;;;;;7.83;7.20;;;;;;;;;;5007917;28;20425;-91
2021/09/11 02:33:07;;;;;;;7.50;6.90;;;;;;;;;;5004320;28;20442;-92
2021/09/11 02:35:35;;;;;;;7.90;7.10;;;16.80;99.90;;;;;;5004734;28;20433;-91
2021/09/11 02:38:03;;;;;;;8.53;7.73;;;;;;;;;;4997663;28;20451;-91
2021/09/11 02:40:30;;;;;;;8.57;7.77;;;;;;;;;;5007284;28;20449;-91
2021/09/11 02:42:57;;;;;;;7.50;6.90;;;;;;;;;;5008338;28;20449;-90
2021/09/11 02:45:24;;;;;;;7.60;6.90;;;;;;;;;;5008203;28;20544;-90
2021/09/11 02:47:51;;;;;;;8.53;7.27;;;;;;;;;;5022540;23;20492;-90
2021/09/11 02:50:18;;;;;;;7.73;7.03;;;;;;;;;;5008514;23;20484;-91
2021/09/11 02:52:47;;;;;;;7.53;6.83;;;16.70;99.90;;;;;;5007834;28;20495;-91
2021/09/11 02:55:14;;;;;;;7.80;7.10;;;;;;;;;;5009824;28;20452;-91
2021/09/11 02:57:45;;;;;;;6.83;6.23;;;;;;;;;;5017118;23;20460;-88
2021/09/11 03:00:14;;;;;;;7.80;7.10;;;16.80;99.90;;;;;;5016226;23;20515;-88
2021/09/11 03:02:41;;;;;;;6.67;6.07;;;;;;;;;;5015445;23;20488;-88
2021/09/11 03:05:09;;;;;;;7.50;6.80;;;16.80;99.90;;;;;;5012151;28;20449;-88
2021/09/11 03:07:36;;;;;;;7.37;6.50;;;;;;;;;;5009104;28;20441;-88
2021/09/11 03:10:07;;;;;;;6.70;6.20;;;16.80;99.90;;;;;;5017298;23;20641;-88
2021/09/11 03:12:34;;;;;;;7.70;7.00;;;;;;;;;;5009543;28;20496;-87
2021/09/11 03:15:01;;;;;;;10.53;6.13;;;;;;;;;;5015920;23;20477;-87
2021/09/11 03:17:29;;;;;;;6.27;5.63;;;;;;;;;;5011966;28;20441;-91
2021/09/11 03:19:56;;;;;;;6.83;6.13;;;;;;;;;;5013794;28;20461;-90
2021/09/11 03:22:23;;;;;;;7.00;6.30;;;;;;;;;;5013254;28;20455;-91
2021/09/11 03:24:50;;;;;;;6.43;5.80;;;;;;;;;;5020300;23;20453;-91
2021/09/11 03:27:18;;;;;;;6.97;6.20;;;16.90;99.90;;;;;;5011288;28;20471;-92
2021/09/11 03:32:11;;;;;;;6.47;5.77;;;;;;;;;;5012374;23;20642;-90
2021/09/11 03:34:38;;;;;;;6.40;5.80;;;;;;;;;;5011937;28;20208;-90
2021/09/11 03:37:06;;;;;;;6.83;6.23;;;;;;;;;;5022364;23;20534;-91
2021/09/11 03:39:33;;;;;;;7.33;5.80;;;;;;;;;;5025982;23;20488;-89
2021/09/11 03:42:00;;;;;;;7.00;6.40;;;;;;;;;;5017499;23;20496;-90
2021/09/11 03:44:29;;;;;;;6.47;5.87;;;;;;;;;;5010097;28;20437;-91
2021/09/11 03:46:56;;;;;;;5.73;5.07;;;;;;;;;;5008920;28;20433;-91
2021/09/11 03:49:23;;;;;;;6.57;5.43;;;16.90;99.90;;;;;;5013855;23;20524;-90
2021/09/11 03:51:51;;;;;;;5.73;5.20;;;;;;;;;;5019044;23;20848;-91
2021/09/11 03:54:18;;;;;;;5.77;5.27;;;;;;;;;;5011009;28;20453;-90
2021/09/11 03:56:45;;;;;;;5.67;5.17;;;;;;;;;;5013529;28;20457;-90
2021/09/11 03:59:12;;;;;;;5.90;5.37;;;16.80;99.90;;;;;;5018610;23;20477;-91
2021/09/11 04:01:41;;;;;;;4.77;4.27;;;;;;;;;;5022737;23;20488;-91
2021/09/11 04:04:10;;;;;;;4.60;4.20;;;;;;;;;;5014176;23;20916;-91
2021/09/11 04:06:37;;;;;;;4.83;4.43;;;;;;;;;;5020613;23;20481;-91
2021/09/11 04:09:04;;;;;;;6.30;5.70;;;;;;;;;;5010173;28;20441;-91
2021/09/11 04:11:32;;;;;;;5.40;4.90;;;;;;;;;;5005424;28;20967;-92
2021/09/11 04:13:59;;;;;;;5.70;5.13;;;;;;;;;;5016547;23;20871;-92
2021/09/11 04:16:26;;;;;;;5.17;4.67;;;;;;;;;;5006835;28;20466;-90
2021/09/11 04:18:55;;;;;;;5.30;4.90;;;;;;;;;;5017597;23;20447;-90
2021/09/11 04:21:22;;;;;;;5.10;4.70;;;;;;;;;;5010987;28;20437;-91
2021/09/11 04:26:17;;;;;;;5.30;4.83;;;;;;;;;;5013099;23;20549;-90
2021/09/11 04:28:44;;;;;;;5.10;4.60;;;;;;;;;;5009356;28;20205;-90
2021/09/11 04:31:14;;;;;;;5.20;4.40;;;;;;;;;;5018004;23;20495;-90
2021/09/11 04:33:42;;;;;;;5.60;5.00;;;;;;;;;;5014436;23;20485;-91
2021/09/11 04:36:10;;;;;;;5.73;5.23;;;16.60;99.90;;;;;;5005587;28;20449;-90
2021/09/11 04:38:37;;;;;;;4.83;4.43;;;;;;;;;;5008720;28;20814;-91
2021/09/11 04:41:05;;;;;;;5.77;5.27;;;;;;;;;;5010862;28;20445;-91
2021/09/11 04:43:32;;;;;;;5.03;4.63;;;;;;;;;;5019372;23;20495;-91
2021/09/11 04:46:03;;;;;;;5.20;4.70;;;;;;;;;;5026003;23;20484;-90
2021/09/11 04:48:31;;;;;;;5.70;5.07;;;;;;;;;;5011281;28;20457;-90
2021/09/11 04:50:58;;;;;;;4.70;4.20;;;;;;;;;;5013499;28;20479;-90
2021/09/11 04:53:26;;;;;;;4.57;4.27;;;16.50;99.90;;;;;;5008704;28;20488;-90
2021/09/11 04:55:53;;;;;;;5.03;4.53;;;;;;;;;;5012603;28;20440;-90
2021/09/11 04:58:20;;;;;;;5.07;4.67;;;;;;;;;;5011005;28;20468;-89
2021/09/11 05:00:47;;;;;;;5.50;4.97;;;;;;;;;;5009333;23;21018;-92
2021/09/11 05:03:15;;;;;;;4.30;3.90;;;;;;;;;;5004624;28;20908;-92
2021/09/11 05:05:42;;;;;;;5.00;4.50;;;;;;;;;;5007320;28;20436;-90
2021/09/11 05:08:09;;;;;;;5.20;4.70;;;;;;;;;;5017250;23;20489;-90
2021/09/11 05:10:39;;;;;;;5.50;4.10;;;16.50;99.90;;;;;;5016415;23;20485;-91
2021/09/11 05:13:07;;;;;;;5.00;4.50;;;;;;;;;;5004924;28;20488;-91
2021/09/11 05:15:34;;;;;;;4.73;4.33;;;;;;;;;;5013746;23;20509;-91
2021/09/11 05:18:01;;;;;;;6.10;3.93;;;;;;;;;;5012922;23;20533;31
2021/09/11 05:20:28;;;;;;;4.27;3.93;;;;;;;;;;4989388;28;20479;-92
2021/09/11 05:22:55;;;;;;;4.90;4.40;;;;;;;;;;4991062;28;20442;-91
2021/09/11 05:25:22;;;;;;;4.07;3.73;;;;;;;;;;5009314;23;20864;-90
2021/09/11 05:27:51;;;;;;;5.03;4.20;;;16.20;99.90;;;;;;5001023;28;20469;-92
2021/09/11 05:30:19;;;;;;;4.47;4.07;;;;;;;;;;4998514;28;20465;-91
2021/09/11 05:32:46;;;;;;;4.90;4.50;;;;;;;;;;5004795;28;20496;-90
2021/09/11 05:35:13;;;;;;;4.47;4.07;;;;;;;;;;4999012;28;20445;-90
2021/09/11 05:37:41;;;;;;;4.40;4.00;;;;;;;;;;4993435;28;20453;-91
2021/09/11 05:40:08;;;;;;;4.70;4.30;;;;;;;;;;4998807;28;20460;-90
2021/09/11 05:42:36;;;;;;;4.30;3.90;;;;;;;;;;4998798;28;20453;-91
2021/09/11 05:45:06;;;;;;;4.33;3.93;;;16.50;99.90;;;;;;4997923;28;20454;-91
2021/09/11 05:47:33;;;;;;;6.00;3.70;;;;;;;;;;4997797;28;20454;-90
2021/09/11 05:50:00;;;;;;;3.90;3.30;;;;;;;;;;4998432;28;20961;-90
2021/09/11 05:52:29;;;;;;;4.40;4.00;;;;;;;;;;4998343;28;20492;-91
2021/09/11 05:54:56;;;;;;;5.00;4.37;;;;;;;;;;4999857;28;20453;-91
2021/09/11 05:57:23;;;;;;;4.90;4.40;;;;;;;;;;4995554;28;20461;-91
2021/09/11 05:59:50;;;;;;;6.13;3.83;;;;;;;;;;4997566;28;20453;-90
2021/09/11 06:02:19;;;;;;;4.83;3.63;;;;;;;;;;4999466;28;20937;-90
2021/09/11 06:04:46;;;;;;;4.20;3.13;;;;;;;;;;4998732;28;20529;-91
2021/09/11 06:07:13;;;;;;;4.40;3.40;;;;;;;;;;4996413;28;20464;-92
2021/09/11 06:09:40;;;;;;;4.30;3.10;;;;;;;;;;4997871;28;20456;-90
2021/09/11 06:12:10;;;;;;;3.57;3.27;;;16.60;99.90;;;;;;4995606;28;20480;-92
2021/09/11 06:14:37;;;;;;;3.70;3.40;;;;;;;;;;4993196;28;20449;-90
2021/09/11 06:17:07;;;;;;;3.80;3.40;;;;;;;;;;4995213;28;20465;-92
2021/09/11 06:19:36;;;;;;;4.43;3.57;;;16.80;99.90;;;;;;4997906;28;20445;-90
2021/09/11 06:22:03;;;;;;;3.53;3.23;;;;;;;;;;4997076;28;20985;-92
2021/09/11 06:24:30;;;;;;;3.93;3.50;;;;;;;;;;5000005;28;20481;-91
2021/09/11 06:26:58;;;;;;;3.33;3.03;;;;;;;;;;5000062;28;20465;-91
2021/09/11 06:29:25;;;;;;;3.93;3.53;;;;;;;;;;4997496;28;20445;-90
2021/09/11 06:31:52;;;;;;;3.70;3.30;;;;;;;;;;5000057;28;20448;-89
2021/09/11 06:34:20;;;;;;;2.60;2.40;;;;;;;;;;4997018;28;20442;-90
2021/09/11 06:36:48;;;;;;;4.00;3.13;;;17.20;99.90;;;;;;4994767;28;20449;-92
2021/09/11 06:39:15;;;;;;;3.27;3.07;;;;;;;;;;4999880;28;20457;-90
2021/09/11 06:41:43;;;;;;;3.63;2.93;;;;;;;;;;5000702;28;20804;-91
2021/09/11 06:44:10;;;;;;;3.00;2.70;;;;;;;;;;5000367;28;20441;-91
2021/09/11 06:46:37;;;;;;;3.00;2.73;;;;;;;;;;4999995;28;20777;-90
2021/09/11 06:49:04;;;;;;;2.33;2.13;;;;;;;;;;5000675;28;20810;-91
2021/09/11 06:51:32;;;;;;;2.60;2.40;;;;;;;;;;4996206;28;20503;-90
2021/09/11 06:54:00;;;;;;;3.23;2.20;;;17.30;99.90;;;;;;5000613;28;20493;-90
2021/09/11 06:56:27;;;;;;;2.80;2.60;;;;;;;;;;4999603;28;20483;-90
2021/09/11 06:58:54;;;;;;;3.37;3.07;;;;;;;;;;5006683;23;20499;-90
2021/09/11 07:01:30;;;;;;;2.73;2.43;;;;;;;;;;5004668;28;20463;-90
2021/09/11 07:03:57;;;;;;;5.40;2.70;;;;;;;;;;5098225;23;20484;-89
2021/09/11 07:06:24;;;;;;;3.23;2.93;;;;;;;;;;5004355;28;20445;-88
2021/09/11 07:08:51;;;;;;;3.20;2.90;;;;;;;;;;5004544;28;20467;-89
2021/09/11 07:11:24;;;;;;;3.73;3.10;;;17.70;99.90;;;;;;5019433;23;20523;-91
2021/09/11 07:13:51;;;;;;;3.13;2.90;;;;;;;;;;5000190;28;20501;-91
2021/09/11 07:16:30;;;;;;;3.00;2.80;;;;;;;;;;5003758;23;20489;-90
2021/09/11 07:18:57;;;;;;;3.53;3.23;;;;;;;;;;5011406;23;20503;-90
2021/09/11 07:21:24;;;;;;;3.40;3.10;;;;;;;;;;4997410;28;20839;-88
2021/09/11 07:23:52;;;;;;;3.53;3.23;;;;;;;;;;4995333;28;20476;-88
2021/09/11 07:26:21;;;;;;;3.23;3.00;;;;;;;;;;4994135;28;20937;-89
2021/09/11 07:28:48;;;;;;;3.90;3.60;;;;;;;;;;4995091;28;20943;-90
2021/09/11 07:31:16;;;;;;;3.50;3.20;;;18.50;99.90;;;;;;4990973;28;20475;-88
2021/09/11 07:33:44;;;;;;;3.90;3.50;;;;;;;;;;4994464;28;20488;-90
2021/09/11 07:36:11;;;;;;;3.33;3.13;;;;;;;;;;4996040;28;20566;-90
2021/09/11 07:38:39;;;;;;;3.40;2.77;;;;;;;;;;4992881;28;20453;-92
2021/09/11 07:41:06;;;;;;;3.30;3.00;;;;;;;;;;4993540;28;20940;-89
2021/09/11 07:43:34;;;;;;;3.73;3.43;;;18.60;99.90;;;;;;4998273;28;20434;-90
2021/09/11 07:46:02;;;;;;;3.23;3.03;;;;;;;;;;4999422;28;20456;-90
2021/09/11 07:48:31;;;;;;;4.03;3.63;;;19.10;99.90;;;;;;5002023;28;20960;-89
2021/09/11 07:50:59;;;;;;;3.40;3.10;;;;;;;;;;5000042;28;20452;-89
2021/09/11 07:53:26;;;;;;;3.73;3.20;;;;;;;;;;4996712;28;20493;-90
2021/09/11 07:55:53;;;;;;;3.40;3.10;;;;;;;;;;5000054;28;20442;-89
2021/09/11 07:58:20;;;;;;;3.80;3.50;;;;;;;;;;5001493;28;20433;-89
2021/09/11 08:00:48;;;;;;;3.83;2.80;;;18.70;99.90;;;;;;4996253;28;20441;-89
2021/09/11 08:03:15;;;;;;;4.20;3.80;;;;;;;;;;5001991;28;20453;-89
2021/09/11 08:05:43;;;;;;;5.17;3.53;;;;;;;;;;4998329;28;20476;-90
2021/09/11 08:08:10;;;;;;;4.43;3.30;;;;;;;;;;4999234;28;20442;-88
2021/09/11 08:10:37;;;;;;;3.87;3.47;;;;;;;;;;5000214;28;20480;-91
2021/09/11 08:13:05;;;;;;;4.87;3.40;;;;;;;;;;5000440;28;20852;-89
2021/09/11 08:15:32;;;;;;;5.50;3.90;;;;;;;;;;5000393;28;20430;-90
2021/09/11 08:18:01;;;;;;;3.73;3.43;;;19.30;99.90;;;;;;5008562;23;21002;-89
2021/09/11 08:20:32;;;;;;;3.30;3.00;;;;;;;;;;5001566;28;20461;-91
2021/09/11 08:23:00;;;;;;;3.10;2.90;;;;;;;;;;4999667;28;20818;-89
2021/09/11 08:25:27;;;;;;;4.77;3.07;;;;;;;;;;5002895;28;20455;-88
2021/09/11 08:27:54;;;;;;;3.50;3.20;;;;;;;;;;5003550;28;20456;-88
2021/09/11 08:30:21;;;;;;;3.80;3.40;;;;;;;;;;5006148;28;20445;-89
2021/09/11 08:32:48;;;;;;;3.00;2.80;;;;;;;;;;5007828;28;20476;-89
2021/09/11 08:35:17;;;;;;;3.50;2.57;;;19.70;99.90;;;;;;5009075;28;20452;-89
2021/09/11 08:37:44;;;;;;;3.83;3.30;;;;;;;;;;5010591;28;20444;-89
2021/09/11 08:40:14;;;;;;;4.10;3.10;;;20.20;99.90;;;;;;5017201;23;20489;-90
2021/09/11 08:42:41;;;;;;;4.00;3.63;;;;;;;;;;5002019;28;20445;-90
2021/09/11 08:45:12;;;;;;;5.17;3.10;;;20.40;99.90;;;;;;5006325;28;20450;-90
2021/09/11 08:47:43;;;;;;;5.80;2.93;;;20.40;99.90;;;;;;5000109;28;20460;-89
2021/09/11 08:50:11;;;;;;;2.90;2.70;;;20.70;99.90;;;;;;4993931;28;20452;-88
2021/09/11 08:52:41;;;;;;;3.07;2.87;;;20.70;99.90;;;;;;5000340;28;20457;-88
2021/09/11 08:55:09;;;;;;;4.73;3.10;;;20.70;99.90;;;;;;5007700;28;20446;-88
2021/09/11 08:57:36;;;;;;;2.77;2.57;;;;;;;;;;5008667;28;20441;-89
2021/09/11 09:00:13;;;;;;;4.67;3.10;;;21.30;99.90;;;;;;5009900;23;20485;-89
2021/09/11 09:02:40;;;;;;;4.90;3.07;;;;;;;;;;5005792;28;20460;-90
2021/09/11 09:05:10;;;;;;;3.17;2.80;;;21.80;99.90;;;;;;5008944;28;20460;-90
2021/09/11 09:07:40;;;;;;;3.30;2.77;;;21.90;99.90;;;;;;5000990;28;20446;-89
2021/09/11 09:10:09;;;;;;;2.80;2.50;;;22.40;99.90;;;;;;5007260;28;20439;-88
2021/09/11 09:12:39;;;;;;;3.10;2.80;;;22.10;99.90;;;;;;5009794;23;20527;-89
2021/09/11 09:15:10;;;;;;;3.00;2.70;;;22.20;99.90;;;;;;5009812;23;20492;-90
2021/09/11 09:17:42;;;;;;;3.07;2.60;;;21.60;99.90;;;;;;4999966;28;20457;-89
2021/09/11 09:20:11;;;;;;;3.07;2.10;;;21.90;99.90;;;;;;5007550;28;20471;-89
2021/09/11 09:22:39;;;;;;;3.83;2.23;;;22.90;99.90;;;;;;5008864;28;20448;-89
2021/09/11 09:25:19;;;;;;;3.83;2.53;;;23.60;99.90;;;;;;5010306;28;20441;-88
2021/09/11 09:27:50;;;;;;;3.67;3.10;;;23.20;99.90;;;;;;5005061;28;20447;-88
2021/09/11 09:30:20;;;;;;;2.40;2.20;;;22.80;99.90;;;;;;5002251;28;20908;-90
2021/09/11 09:32:49;;;;;;;2.93;2.73;;;21.90;99.90;;;;;;4996915;28;20456;-90
2021/09/11 09:35:24;;;;;;;2.87;2.67;;;21.40;99.90;;;;;;4991887;28;20453;-93
2021/09/11 09:37:57;;;;;;;4.73;2.57;;;21.50;99.90;;;;;;4999627;28;20480;-93
2021/09/11 09:40:48;;;;;;;2.20;2.00;;;21.80;99.90;;;;;;4997652;28;20434;-91
2021/09/11 09:43:30;;;;;;;2.57;2.37;;;21.70;99.90;;;;;;4986258;28;20765;-90
2021/09/11 09:46:04;;;;;;;2.70;2.50;;;21.50;99.90;;;;;;4994074;28;20445;-88
2021/09/11 09:48:33;;;;;;;7.10;3.00;;;;;;;;;;4998804;28;20444;-91
2021/09/11 09:51:03;;;;;;;3.70;2.63;;;22.20;99.90;;;;;;5000044;28;20511;-87
2021/09/11 09:53:32;;;;;;;2.87;2.60;;;22.80;99.90;;;;;;4991947;28;20492;-90
2021/09/11 09:56:00;;;;;;;4.67;2.80;;;23.40;99.90;;;;;;4998662;28;20457;-90
2021/09/11 09:58:27;;;;;;;3.40;3.10;;;;;;;;;;4997547;28;20453;-90
2021/09/11 10:00:54;;;;;;;3.50;2.87;;;;;;;;;;4995523;28;20445;-89
2021/09/11 10:03:22;;;;;;;4.70;2.53;;;;;;;;;;4996488;28;20464;-89
2021/09/11 10:05:53;;;;;;;3.20;2.37;;;25.50;99.90;;;;;;4995549;28;20449;-89
2021/09/11 10:08:20;;;;;;;2.40;2.20;;;;;;;;;;5002392;28;20460;-89
2021/09/11 10:10:50;;;;;;;6.03;2.90;;;26.20;99.90;;;;;;4995707;28;20833;-90
2021/09/11 10:13:19;;;;;;;3.07;2.50;;;27.10;99.90;;;;;;4992058;28;20484;-94
2021/09/11 10:15:54;;;;;;;2.90;2.70;;;27.30;99.90;;;;;;4995258;28;20523;-88
2021/09/11 10:18:45;;;;;;;3.33;2.40;;;27.10;99.10;;;;;;5002430;28;20475;-93
2021/09/11 10:21:18;;;;;;;3.20;2.07;;;27.40;99.90;;;;;;4993053;28;20485;-93
2021/09/11 10:24:00;;;;;;;3.03;2.63;;;27.90;97.90;;;;;;4994752;28;20829;-90
2021/09/11 10:26:48;;;;;;;2.40;2.20;;;27.30;99.60;;;;;;4994341;28;20446;-93
2021/09/11 10:29:40;;;;;;;2.43;2.23;;;26.50;99.90;;;;;;4994974;28;20479;-89
2021/09/11 10:32:08;;;;;;;2.33;2.13;;;25.10;99.90;;;;;;4999647;28;20464;-93
2021/09/11 10:34:47;;;;;;;2.47;2.27;;;24.20;99.90;;;;;;4998005;28;20492;-95
2021/09/11 10:37:15;;;;;;;2.40;2.20;;;;;;;;;;4998090;28;20457;-89
2021/09/11 10:39:44;;;;;;;2.93;2.63;;;22.90;99.90;;;;;;5002142;28;20456;-93
2021/09/11 10:42:12;;;;;;;2.90;2.60;;;22.80;99.90;;;;;;4996256;28;20512;-95
2021/09/11 10:44:40;;;;;;;3.63;3.20;;;22.50;99.90;;;;;;4994567;28;20453;-92
2021/09/11 10:47:07;;;;;;;2.80;2.47;;;;;;;;;;4997200;28;20449;-95
2021/09/11 10:49:35;;;;;;;3.00;2.70;;;21.90;99.90;;;;;;4992096;28;20445;-90
2021/09/11 10:52:05;;;;;;;5.60;2.83;;;21.90;99.90;;;;;;4992297;28;20445;-91
2021/09/11 10:54:32;;;;;;;5.17;2.63;;;;;;;;;;4995138;28;20493;-88
2021/09/11 10:57:09;;;;;;;4.87;2.90;;;21.70;99.90;;;;;;4996780;28;20452;-94
2021/09/11 10:59:42;;;;;;;4.53;2.77;;;21.50;99.90;;;;;;5006320;28;20438;-88
2021/09/11 11:02:22;;;;;;;6.43;3.03;;;21.20;99.90;;;;;;5009927;28;20532;-88
2021/09/11 11:04:59;;;;;;;2.70;2.50;;;21.00;99.90;;;;;;5014982;23;20549;-88
2021/09/11 11:09:54;;;;;;;4.20;3.30;;;22.10;99.90;;;;;;5015776;23;20501;-94
2021/09/11 11:12:24;;;;;;;10.30;3.53;;;19.40;99.90;;;;;;4996054;28;20230;-93
2021/09/11 11:14:55;;;;;;;5.67;3.20;;;19.20;99.90;;;;;;4989706;28;20497;-93
2021/09/11 11:17:24;;;;;;;8.27;3.10;;;19.00;99.90;;;;;;4995178;28;20535;-92
2021/09/11 11:19:52;;;;;;;3.57;2.27;;;18.80;99.90;;;;;;4995132;28;20449;-92
2021/09/11 11:22:26;;;;;;;3.37;2.20;;;18.50;99.90;;;;;;4998937;28;20461;-91
2021/09/11 11:24:54;;;;;;;6.83;2.73;;;;;;;;;;5008607;28;20448;-92
2021/09/11 11:27:23;;;;;;;3.60;2.30;;;18.40;99.90;;;;;;5012777;28;20441;-93
2021/09/11 11:29:53;;;;;;;3.23;2.33;;;18.40;99.90;;;;;;4999768;28;20483;-93
2021/09/11 11:32:21;;;;;;;6.53;2.93;;;;;;;;;;4997059;28;20452;-90
2021/09/11 11:34:55;;;;;;;4.90;3.00;;;18.80;99.90;;;;;;4998785;28;20501;-92
2021/09/11 11:37:23;;;;;;;3.07;2.77;;;18.80;99.90;;;;;;4995416;28;20477;-93
2021/09/11 11:39:50;;;;;;;3.63;3.33;;;;;;;;;;5001153;28;20472;-89
2021/09/11 11:42:22;;;;;;;4.50;2.87;;;19.20;99.90;;;;;;5005274;28;20462;-91
2021/09/11 11:44:52;;;;;;;6.00;2.97;;;19.70;99.90;;;;;;4994396;28;20434;-91
2021/09/11 11:47:35;;;;;;;3.27;2.97;;;20.10;99.90;;;;;;4995482;28;20438;-93
2021/09/11 11:50:02;;;;;;;5.37;3.03;;;;;;;;;;4998964;28;20944;-92
2021/09/11 11:52:37;;;;;;;2.70;2.50;;;20.20;99.90;;;;;;5009362;28;20524;-90
2021/09/11 11:55:30;;;;;;;3.50;3.20;;;20.40;99.90;;;;;;5014782;23;20563;-91
2021/09/11 11:58:09;;;;;;;5.70;3.47;;;20.40;99.90;;;;;;5011536;28;20453;-92
2021/09/11 12:00:43;;;;;;;3.10;2.47;;;20.10;99.90;;;;;;5014696;23;20499;-91
2021/09/11 12:03:35;;;;;;;3.20;2.80;;;20.00;99.90;;;;;;4993217;28;20569;-94
2021/09/11 12:06:02;;;;;;;3.30;3.00;;;;;;;;;;5018400;23;20489;-92
2021/09/11 12:08:31;;;;;;;3.00;2.80;;;;;;;;;;5017705;23;20497;-92
2021/09/11 12:11:00;;;;;;;3.37;3.07;;;;;;;;;;5010834;28;20465;-93
2021/09/11 12:13:30;;;;;;;3.83;2.77;;;;;;;;;;5008030;28;20452;-90
2021/09/11 12:16:00;;;;;;;2.80;2.60;;;20.00;99.90;;;;;;5008171;28;20456;-93
2021/09/11 12:18:34;;;;;;;2.30;2.10;;;20.10;99.90;;;;;;5019470;23;20489;-90
2021/09/11 12:21:08;;;;;;;2.77;2.40;;;20.40;99.90;;;;;;5008677;28;20441;-90
2021/09/11 12:23:37;;;;;;;2.63;2.43;;;;;;;;;;5013844;23;20960;-92
2021/09/11 12:26:07;;;;;;;2.50;2.10;;;20.50;99.90;;;;;;4998065;28;20544;-91
2021/09/11 12:28:36;;;;;;;2.87;2.67;;;20.40;99.90;;;;;;4996750;28;20544;-89
2021/09/11 12:31:09;;;;;;;5.03;2.80;;;20.70;99.90;;;;;;5005329;28;20857;-90
2021/09/11 12:33:48;;;;;;;3.00;2.73;;;21.50;99.90;;;;;;5004064;28;20464;-90
2021/09/11 12:36:24;;;;;;;4.87;2.50;;;21.70;99.90;;;;;;5003067;28;20468;-91
2021/09/11 12:38:52;;;;;;;3.13;2.73;;;21.80;99.90;;;;;;5008379;28;20457;-89
2021/09/11 12:41:20;;;;;;;4.23;2.90;;;21.70;99.90;;;;;;5014447;28;20500;-88
2021/09/11 12:43:47;;;;;;;3.50;2.70;;;;;;;;;;5005716;28;20457;-88
2021/09/11 12:46:27;;;;;;;3.97;2.60;;;21.80;99.90;;;;;;5009043;28;20449;-89
2021/09/11 12:48:57;;;;;;;2.00;1.80;;;;;;;;;;5008411;28;20535;-89
2021/09/11 12:51:25;;;;;;;2.40;2.20;;;;;;;;;;5007831;28;20810;-90
2021/09/11 12:59:02;;;;;;;3.20;2.57;;;;;;;;;;5022775;23;20485;-90
2021/09/11 13:01:33;;;;;;;2.80;2.30;;;21.50;99.90;;;;;;5019032;23;20675;-89
2021/09/11 13:04:03;;;;;;;2.13;2.00;;;21.60;99.90;;;;;;5017844;23;20504;-89
2021/09/11 13:06:31;;;;;;;2.30;2.10;;;;;;;;;;5010061;28;20456;-90
2021/09/11 13:08:58;;;;;;;3.53;2.03;;;;;;;;;;5019953;23;20485;-90
2021/09/11 13:11:25;;;;;;;3.50;2.30;;;;;;;;;;5012165;28;20476;-89
2021/09/11 13:13:52;;;;;;;3.60;2.20;;;;;;;;;;5008514;28;20476;-90
2021/09/11 13:16:20;;;;;;;2.40;2.07;;;;;;;;;;5003017;28;20453;-90
2021/09/11 13:18:48;;;;;;;2.73;1.63;;;24.00;99.90;;;;;;5006695;28;20457;-87
2021/09/11 13:21:16;;;;;;;4.40;2.70;;;24.20;99.90;;;;;;4998686;28;20896;-89
2021/09/11 13:23:45;;;;;;;1.93;1.73;;;24.50;99.90;;;;;;4993179;28;20453;-89
2021/09/11 13:26:14;;;;;;;2.07;1.87;;;24.00;99.90;;;;;;4997704;28;20453;-90
2021/09/11 13:28:42;;;;;;;3.17;1.90;;;;;;;;;;4999289;28;20552;-91
2021/09/11 13:31:09;;;;;;;1.97;1.77;;;24.10;99.90;;;;;;4996508;28;20496;-90
2021/09/11 13:33:36;;;;;;;1.87;1.67;;;;;;;;;;4996847;28;20488;-91
2021/09/11 13:36:06;;;;;;;1.60;1.50;;;24.50;99.90;;;;;;4991530;28;20489;-88
2021/09/11 13:38:33;;;;;;;1.67;1.57;;;;;;;;;;4995103;28;20460;-92
2021/09/11 13:41:01;;;;;;;1.83;1.63;;;;;;;;;;4994712;28;20779;-90
2021/09/11 13:43:28;;;;;;;1.57;1.47;;;;;;;;;;4990761;28;20549;-90
2021/09/11 13:45:56;;;;;;;1.80;1.60;;;;;;;;;;4990343;28;20453;-91
2021/09/11 13:48:23;;;;;;;1.93;1.83;;;;;;;;;;4995623;28;20441;-91
2021/09/11 13:50:50;;;;;;;1.60;1.50;;;;;;;;;;4994950;28;20453;-91
2021/09/11 13:53:18;;;;;;;2.33;2.13;;;;;;;;;;4994298;28;20457;-89
2021/09/11 13:55:45;;;;;;;4.57;2.77;;;;;;;;;;4994978;28;20497;-92
2021/09/11 13:58:13;;;;;;;1.90;1.70;;;;;;;;;;4996778;28;20458;-92
2021/09/11 14:00:40;;;;;;;2.67;1.80;;;;;;;;;;4994995;28;20825;-88
2021/09/11 14:03:07;;;;;;;1.97;1.87;;;;;;;;;;4994396;28;20452;-89
2021/09/11 14:05:34;;;;;;;2.63;2.17;;;;;;;;;;4975473;28;20450;-94
2021/09/11 14:08:02;;;;;;;2.90;1.73;;;;;;;;;;4974855;28;20457;-92
2021/09/11 14:10:30;;;;;;;2.33;1.90;;;23.40;99.90;;;;;;4975161;28;20482;-92
2021/09/11 14:12:57;;;;;;;2.10;1.90;;;;;;;;;;4978191;28;20450;-89
2021/09/11 14:15:24;;;;;;;1.90;1.80;;;;;;;;;;4975423;28;20796;-88
2021/09/11 14:17:52;;;;;;;3.00;2.00;;;;;;;;;;4977918;28;20458;-90
2021/09/11 14:20:20;;;;;;;1.90;1.67;;;22.10;99.90;;;;;;4978422;28;20454;-89
2021/09/11 14:22:48;;;;;;;8.77;1.70;;;;;;;;;;4979339;28;20443;-88